Time;durP1;ratioP1;P1;durP2;ratioP2;P2;SDS_P1;SDS_P2;PMS_P1;PMS_P2;Temp;Humidity;BMP_temperature;BMP_pressure;BME280_temperature;BME280_humidity;BME280_pressure;Samples;Min_cycle;Max_cycle;Signal;HPM_P1;HPM_P2
2021/07/11 00:00:34;;;;;;;12.50;8.05;;;;;;;24.96;52.63;99178.35;1870763;76;22544;-59
2021/07/11 00:03:09;;;;;;;14.83;8.50;;;;;;;24.94;52.72;99174.95;1873947;76;27906;-59
2021/07/11 00:05:44;;;;;;;16.25;8.13;;;;;;;24.96;52.67;99177.03;1870688;76;22141;-56
2021/07/11 00:08:20;;;;;;;15.23;8.00;;;;;;;24.95;52.72;99176.17;1870431;76;22174;-58
2021/07/11 00:10:55;;;;;;;14.78;8.23;;;;;;;24.95;52.92;99177.50;1870620;76;22721;-58
2021/07/11 00:13:30;;;;;;;17.52;8.33;;;;;;;24.94;52.95;99172.30;1870673;76;22137;-60
2021/07/11 00:16:06;;;;;;;14.78;8.03;;;;;;;24.91;53.05;99170.19;1870710;76;22152;-59
2021/07/11 00:18:40;;;;;;;14.55;8.13;;;;;;;24.89;53.13;99166.75;1870918;76;22141;-59
2021/07/11 00:21:15;;;;;;;14.03;8.65;;;;;;;24.86;53.18;99162.94;1890015;76;22112;-59
2021/07/11 00:23:50;;;;;;;14.70;9.18;;;;;;;24.87;53.38;99171.70;1889966;76;22112;-61
2021/07/11 00:26:45;;;;;;;19.48;9.20;;;;;;;24.87;53.42;99166.43;1889984;76;22550;-58
2021/07/11 00:29:20;;;;;;;19.23;8.98;;;;;;;24.86;53.59;99166.05;1870587;76;22559;-61
2021/07/11 00:31:55;;;;;;;20.30;9.48;;;;;;;24.84;53.53;99166.10;1854644;76;28498;-58
2021/07/11 00:34:30;;;;;;;13.45;9.58;;;;;;;24.87;53.61;99165.11;1870695;76;22156;-59
2021/07/11 00:37:06;;;;;;;17.62;9.55;;;;;;;24.85;53.72;99167.80;1854657;76;28163;-57
2021/07/11 00:39:41;;;;;;;13.58;8.45;;;;;;;24.87;53.55;99163.32;1870622;76;22169;-59
2021/07/11 00:42:18;;;;;;;16.62;8.70;;;;;;;24.86;53.46;99160.30;1870631;76;22154;-60
2021/07/11 00:45:14;;;;;;;14.75;8.78;;;;;;;24.83;53.41;99151.64;1854734;76;28502;-70
2021/07/11 00:47:49;;;;;;;14.68;8.48;;;;;;;24.86;53.25;99152.38;1870676;76;22125;-68
2021/07/11 00:50:25;;;;;;;16.05;8.40;;;;;;;24.85;53.14;99155.92;1870423;76;22166;-68
2021/07/11 00:53:00;;;;;;;14.28;8.98;;;;;;;24.83;52.99;99155.59;1890050;76;22573;-60
2021/07/11 00:55:36;;;;;;;13.53;8.35;;;;;;;24.81;53.06;99148.23;1854731;76;28495;-64
2021/07/11 00:58:13;;;;;;;15.68;9.28;;;;;;;24.83;52.95;99149.88;1890002;76;22197;-61
2021/07/11 01:01:08;;;;;;;13.83;8.48;;;;;;;24.78;53.08;99147.91;1889929;76;22140;-67
2021/07/11 01:03:48;;;;;;;16.23;8.33;;;;;;;24.73;53.23;99145.94;1854733;76;28064;-63
2021/07/11 01:06:24;;;;;;;10.53;7.78;;;;;;;24.77;53.03;99147.49;1870696;76;22124;-58
2021/07/11 01:09:36;;;;;;;12.70;8.43;;;;;;;24.81;52.76;99142.48;1854945;76;27917;-58
2021/07/11 01:12:22;;;;;;;13.05;7.65;;;;;;;24.89;52.81;99145.63;1870690;76;22560;-55
2021/07/11 01:15:00;;;;;;;17.42;10.32;;;;;;;24.89;52.53;99148.27;1854769;76;27886;-59
2021/07/11 01:17:35;;;;;;;17.25;9.70;;;;;;;24.89;53.45;99148.27;1870712;76;22145;-59
2021/07/11 01:20:27;;;;;;;13.98;8.45;;;;;;;24.83;53.75;99147.24;1854788;76;28098;-56
2021/07/11 01:23:11;;;;;;;10.25;7.33;;;;;;;24.83;53.24;99143.72;1870477;76;22559;-59
2021/07/11 01:25:49;;;;;;;10.70;6.75;;;;;;;24.85;53.17;99141.41;1870713;76;22121;-56
2021/07/11 01:28:24;;;;;;;11.95;7.37;;;;;;;24.90;52.73;99142.05;1870983;76;22108;-53
2021/07/11 01:30:59;;;;;;;13.85;9.85;;;;;;;24.94;52.46;99140.63;1889972;76;22160;-56
2021/07/11 01:33:55;;;;;;;15.85;9.63;;;;;;;24.87;53.60;99147.48;1889943;76;22116;-60
2021/07/11 01:36:31;;;;;;;12.98;7.92;;;;;;;24.72;54.46;99149.48;1889955;76;22580;-60
2021/07/11 01:39:06;;;;;;;15.90;7.85;;;;;;;24.65;53.71;99148.91;1870681;76;22160;-64
2021/07/11 01:41:45;;;;;;;16.43;10.27;;;;;;;24.70;53.26;99150.00;1854910;76;27906;-63
2021/07/11 01:44:41;;;;;;;16.80;10.55;;;;;;;24.73;54.05;99153.86;1890048;76;22136;-61
2021/07/11 01:47:37;;;;;;;19.02;9.98;;;;;;;24.58;55.06;99146.14;1889991;76;22104;-64
2021/07/11 01:50:31;;;;;;;15.83;9.48;;;;;;;24.50;54.96;99146.05;1870598;76;22587;-63
2021/07/11 01:53:07;;;;;;;13.98;8.43;;;;;;;24.45;54.74;99144.49;1890002;76;20354;-64
2021/07/11 01:55:43;;;;;;;15.90;10.70;;;;;;;24.44;54.45;99145.83;1873924;76;28477;-57
2021/07/11 01:58:18;;;;;;;14.47;9.30;;;;;;;24.48;54.82;99140.86;1854711;76;27919;-59
2021/07/11 02:00:55;;;;;;;13.83;9.43;;;;;;;24.50;54.67;99144.73;1873980;76;27903;-56
2021/07/11 02:03:30;;;;;;;10.80;8.35;;;;;;;24.53;54.48;99148.59;1870721;76;22113;-59
2021/07/11 02:06:08;;;;;;;12.73;8.55;;;;;;;24.48;54.27;99144.35;1870710;76;22559;-60
2021/07/11 02:08:42;;;;;;;17.30;9.28;;;;;;;24.45;54.66;99139.22;1873877;76;27937;-60
2021/07/11 02:11:18;;;;;;;11.85;7.90;;;;;;;24.46;54.40;99143.55;1870632;76;22140;-58
2021/07/11 02:14:05;;;;;;;12.23;7.70;;;;;;;24.47;54.08;99148.36;1890140;76;20096;-59
2021/07/11 02:16:57;;;;;;;12.85;7.50;;;;;;;24.46;54.42;99138.75;1870683;76;20212;-60
2021/07/11 02:19:35;;;;;;;11.48;8.08;;;;;;;24.44;54.44;99150.64;1889978;76;22115;-61
2021/07/11 02:22:12;;;;;;;11.20;6.42;;;;;;;24.42;54.82;99147.67;1870696;76;22547;-66
2021/07/11 02:24:48;;;;;;;12.63;7.15;;;;;;;24.39;54.22;99149.98;1854983;76;27904;-62
2021/07/11 02:27:23;;;;;;;13.75;9.43;;;;;;;24.46;54.05;99158.06;1889989;76;22144;-58
2021/07/11 02:29:58;;;;;;;17.62;10.55;;;;;;;24.48;55.33;99159.33;1870706;76;22152;-57
2021/07/11 02:32:34;;;;;;;19.35;10.98;;;;;;;24.42;56.26;99159.55;1854805;76;27924;-61
2021/07/11 02:35:09;;;;;;;16.80;10.08;;;;;;;24.41;56.84;99163.11;1890013;76;20093;-59
2021/07/11 02:37:49;;;;;;;16.42;10.10;;;;;;;24.35;57.54;99173.91;1870689;76;22576;-61
2021/07/11 02:40:24;;;;;;;16.50;9.75;;;;;;;24.26;57.74;99165.94;1889975;76;22143;-62
2021/07/11 02:43:01;;;;;;;21.62;9.45;;;;;;;24.20;57.31;99170.16;1890120;76;22575;-62
2021/07/11 02:45:38;;;;;;;15.00;9.63;;;;;;;24.16;57.37;99164.13;1873888;76;28524;-61
2021/07/11 02:48:14;;;;;;;12.30;7.65;;;;;;;24.20;57.10;99172.80;1889954;76;22140;-58
2021/07/11 02:51:13;;;;;;;14.85;8.70;;;;;;;24.22;56.40;99178.84;1870789;76;22112;-61
2021/07/11 02:53:58;;;;;;;13.88;9.33;;;;;;;24.24;56.93;99180.95;1869831;76;20204;-62
2021/07/11 02:56:57;;;;;;;12.00;8.55;;;;;;;24.25;57.09;99178.73;1870627;76;22599;-58
2021/07/11 02:59:35;;;;;;;16.55;9.33;;;;;;;24.25;57.05;99176.10;1870607;76;22185;-59
2021/07/11 03:02:30;;;;;;;15.15;8.90;;;;;;;24.25;57.00;99174.31;1870697;76;22112;-59
2021/07/11 03:05:10;;;;;;;17.70;9.25;;;;;;;24.26;56.99;99169.89;1889945;76;22571;-56
2021/07/11 03:07:45;;;;;;;14.35;8.88;;;;;;;24.25;56.92;99178.27;1870698;76;22137;-59
2021/07/11 03:10:21;;;;;;;18.60;8.70;;;;;;;24.25;56.74;99176.10;1870433;76;22136;-57
2021/07/11 03:13:00;;;;;;;11.18;8.63;;;;;;;24.24;57.00;99175.22;1870699;76;22552;-60
2021/07/11 03:15:37;;;;;;;23.18;10.05;;;;;;;24.27;56.89;99180.82;1889972;76;22566;-58
2021/07/11 03:18:14;;;;;;;14.20;8.83;;;;;;;24.31;57.02;99179.78;1870633;76;22198;-61
2021/07/11 03:20:52;;;;;;;18.02;10.48;;;;;;;24.28;57.91;99180.39;1870435;76;22168;-57
2021/07/11 03:23:27;;;;;;;14.25;9.85;;;;;;;24.26;58.84;99172.53;1854785;76;28035;-57
2021/07/11 03:26:03;;;;;;;14.23;9.25;;;;;;;24.27;58.21;99174.23;1873947;76;27938;-55
2021/07/11 03:28:39;;;;;;;14.35;8.93;;;;;;;24.35;58.56;99166.88;1870721;76;20093;-58
2021/07/11 03:31:15;;;;;;;18.77;10.63;;;;;;;24.36;58.89;99160.67;1835146;77;28141;-64
2021/07/11 03:33:54;;;;;;;13.30;8.88;;;;;;;24.45;58.99;99170.87;1873909;76;38389;-63
2021/07/11 03:36:32;;;;;;;13.88;8.50;;;;;;;24.52;58.91;99169.28;1870670;76;22133;-65
2021/07/11 03:39:27;;;;;;;14.10;9.68;;;;;;;24.51;59.20;99171.53;1889939;76;22572;-65
2021/07/11 03:42:03;;;;;;;15.53;9.83;;;;;;;24.52;59.54;99167.96;1870708;76;22120;-62
2021/07/11 03:44:42;;;;;;;18.15;10.53;;;;;;;24.57;59.71;99168.15;1870671;76;22584;-63
2021/07/11 03:47:20;;;;;;;16.70;11.97;;;;;;;24.67;60.01;99171.26;1870665;76;22194;-63
2021/07/11 03:50:18;;;;;;;15.32;11.93;;;;;;;24.75;60.45;99174.41;1870426;76;22168;-62
2021/07/11 03:53:16;;;;;;;17.60;11.20;;;;;;;24.82;60.55;99181.14;1889949;76;22144;-66
2021/07/11 03:56:12;;;;;;;20.30;12.50;;;;;;;24.88;60.71;99176.94;1870624;76;22121;-61
2021/07/11 03:58:47;;;;;;;16.48;12.18;;;;;;;24.87;60.75;99172.56;1870677;76;22572;-61
2021/07/11 04:01:30;;;;;;;19.95;12.93;;;;;;;24.85;61.28;99174.41;1854803;76;28093;-64
2021/07/11 04:04:09;;;;;;;25.85;13.05;;;;;;;24.87;60.92;99180.48;1870938;76;22591;-63
2021/07/11 04:06:51;;;;;;;18.23;11.25;;;;;;;24.91;61.20;99179.43;1865708;76;22206;-61
2021/07/11 04:09:28;;;;;;;19.62;11.88;;;;;;;24.87;60.84;99177.84;1855490;76;22149;-62
2021/07/11 04:12:04;;;;;;;18.25;12.47;;;;;;;24.81;60.97;99178.13;1856536;76;22179;-67
2021/07/11 04:14:39;;;;;;;16.95;11.83;;;;;;;24.77;61.53;99172.57;1870732;76;22136;-63
2021/07/11 04:17:17;;;;;;;20.48;12.50;;;;;;;24.77;61.39;99172.57;1854728;76;28069;-61
2021/07/11 04:19:55;;;;;;;17.00;12.37;;;;;;;24.91;61.49;99173.30;1873907;76;27924;-62
2021/07/11 04:22:31;;;;;;;22.58;11.43;;;;;;;25.05;60.97;99164.75;1857182;76;22160;-65
2021/07/11 04:25:32;;;;;;;16.12;11.10;;;;;;;25.13;60.22;99170.53;1855899;76;22191;-66
2021/07/11 04:28:36;;;;;;;19.00;9.28;;;;;;;25.24;60.23;99174.91;1811821;77;23846;-58
2021/07/11 04:31:30;;;;;;;15.65;9.30;;;;;;;25.32;58.53;99168.81;1861904;76;22139;-63
2021/07/11 04:34:34;;;;;;;19.67;9.20;;;;;;;25.34;58.17;99174.03;1858480;76;22563;-62
2021/07/11 04:37:11;;;;;;;13.50;8.35;;;;;;;25.41;57.36;99176.76;1857048;76;22172;-62
2021/07/11 04:39:45;;;;;;;14.55;7.97;;;;;;;25.41;56.58;99178.55;1847572;76;22172;-59
2021/07/11 04:42:20;;;;;;;14.90;8.83;;;;;;;25.48;56.80;99176.88;1853666;76;22171;-60
2021/07/11 04:45:34;;;;;;;10.68;7.25;;;;;;;25.61;56.54;99183.76;1877469;75;22287;-66
2021/07/11 04:48:14;;;;;;;14.68;6.97;;;;;;;25.71;55.11;99177.11;1870121;76;22573;-64
2021/07/11 04:50:49;;;;;;;12.53;7.33;;;;;;;25.78;54.18;99182.50;1889966;76;22180;-62
2021/07/11 04:54:06;;;;;;;13.18;7.75;;;;;;;25.86;54.41;99182.16;1864672;75;22169;-62
2021/07/11 04:56:42;;;;;;;13.48;6.62;;;;;;;25.97;54.46;99185.59;1890022;76;22192;-63
2021/07/11 04:59:18;;;;;;;12.80;7.03;;;;;;;26.06;53.84;99185.16;1889981;76;22145;-62
2021/07/11 05:02:00;;;;;;;11.88;7.20;;;;;;;26.17;53.26;99188.59;1890260;76;22188;-63
2021/07/11 05:04:34;;;;;;;13.55;7.33;;;;;;;26.30;53.55;99183.55;1845438;76;22160;-62
2021/07/11 05:07:09;;;;;;;12.18;7.10;;;;;;;26.42;53.23;99186.91;1844197;76;22235;-59
2021/07/11 05:09:44;;;;;;;11.97;6.72;;;;;;;26.55;51.99;99191.99;1870780;76;22148;-63
2021/07/11 05:12:19;;;;;;;15.20;6.85;;;;;;;26.62;52.32;99188.10;1889972;76;22124;-63
2021/07/11 05:14:53;;;;;;;11.28;6.37;;;;;;;26.76;51.70;99186.53;1870650;76;22176;-65
2021/07/11 05:17:28;;;;;;;9.45;6.20;;;;;;;26.87;50.78;99197.88;1889899;76;22151;-62
2021/07/11 05:20:08;;;;;;;14.95;6.62;;;;;;;26.92;50.33;99192.75;1870393;76;22595;-64
2021/07/11 05:22:49;;;;;;;10.55;6.83;;;;;;;27.00;49.90;99196.32;1869834;76;22588;-63
2021/07/11 05:25:43;;;;;;;15.90;6.25;;;;;;;27.06;50.18;99197.30;1853157;76;22203;-66
2021/07/11 05:28:19;;;;;;;11.48;6.35;;;;;;;27.18;49.54;99201.14;1855590;76;22175;-66
2021/07/11 05:30:55;;;;;;;12.18;6.78;;;;;;;27.28;49.82;99197.06;1839313;76;22156;-63
2021/07/11 05:33:49;;;;;;;11.38;5.90;;;;;;;27.39;49.06;99199.13;1889945;76;22583;-64
2021/07/11 05:36:24;;;;;;;11.80;6.10;;;;;;;27.51;48.07;99204.23;1870685;76;22109;-64
2021/07/11 05:39:00;;;;;;;15.43;5.78;;;;;;;27.62;47.62;99214.61;1889934;76;22188;-63
2021/07/11 05:41:34;;;;;;;10.93;5.80;;;;;;;27.73;46.87;99210.03;1870709;76;22161;-63
2021/07/11 05:44:11;;;;;;;10.10;5.97;;;;;;;27.85;46.95;99205.41;1864294;76;22589;-65
2021/07/11 05:46:45;;;;;;;14.23;6.17;;;;;;;28.01;46.52;99200.12;1850862;76;22193;-65
2021/07/11 05:49:39;;;;;;;10.23;4.92;;;;;;;28.18;46.36;99203.59;1848200;75;22616;-66
2021/07/11 05:52:14;;;;;;;9.73;5.53;;;;;;;28.31;45.64;99209.41;1854919;76;22234;-63
2021/07/11 05:55:10;;;;;;;7.35;5.03;;;;;;;28.76;44.18;99211.66;1848771;76;22225;-64
2021/07/11 05:57:51;;;;;;;8.13;4.80;;;;;;;29.92;41.67;99213.39;1854162;76;22610;-63
2021/07/11 06:00:26;;;;;;;7.83;4.33;;;;;;;31.64;39.29;99218.19;1842992;76;22613;-63
2021/07/11 06:03:01;;;;;;;6.67;4.00;;;;;;;33.27;34.95;99222.38;1853530;76;22183;-62
2021/07/11 06:05:37;;;;;;;6.10;4.00;;;;;;;34.19;33.07;99224.85;1875419;76;22089;-63
2021/07/11 06:08:32;;;;;;;6.30;3.20;;;;;;;35.30;30.79;99231.60;1852105;76;22513;-62
2021/07/11 06:11:07;;;;;;;7.03;3.70;;;;;;;36.16;29.66;99239.61;1855774;76;22643;-63
2021/07/11 06:14:00;;;;;;;5.55;3.37;;;;;;;37.31;28.75;99235.60;1853385;76;22282;-63
2021/07/11 06:16:35;;;;;;;5.62;3.27;;;;;;;38.01;26.94;99244.58;1855814;76;22164;-63
2021/07/11 06:19:09;;;;;;;8.13;3.83;;;;;;;37.76;26.90;99240.75;1889950;76;22082;-64
2021/07/11 06:22:04;;;;;;;6.40;3.02;;;;;;;37.58;27.65;99242.05;1870628;76;22644;-62
2021/07/11 06:24:38;;;;;;;5.35;2.90;;;;;;;38.39;26.41;99243.94;1889955;76;22061;-63
2021/07/11 06:27:13;;;;;;;5.95;3.42;;;;;;;39.38;24.52;99250.46;1870576;76;22089;-68
2021/07/11 06:29:49;;;;;;;7.33;3.30;;;;;;;39.88;23.97;99251.04;1885686;76;22045;-63
2021/07/11 06:32:47;;;;;;;4.42;2.90;;;;;;;40.24;23.78;99252.16;1850825;75;20234;-65
2021/07/11 06:35:32;;;;;;;4.00;2.67;;;;;;;40.90;23.02;99248.14;1852312;76;22109;-65
2021/07/11 06:38:26;;;;;;;4.83;2.60;;;;;;;41.56;21.71;99255.13;1849190;76;22121;-63
2021/07/11 06:41:19;;;;;;;6.08;2.75;;;;;;;42.11;20.35;99259.27;1854579;76;22229;-63
2021/07/11 06:43:54;;;;;;;6.00;2.67;;;;;;;42.29;20.67;99257.13;1855264;76;22104;-63
2021/07/11 06:46:47;;;;;;;4.97;2.40;;;;;;;42.53;20.26;99260.70;1856545;76;22097;-60
2021/07/11 06:49:21;;;;;;;4.90;2.20;;;;;;;42.53;19.19;99266.97;1889916;76;22140;-60
2021/07/11 06:52:04;;;;;;;3.50;1.87;;;;;;;41.81;20.16;99259.09;1869766;76;22100;-64
2021/07/11 06:54:57;;;;;;;8.88;2.80;;;;;;;41.82;20.40;99256.70;1869763;76;22098;-62
2021/07/11 06:57:33;;;;;;;5.22;2.20;;;;;;;42.32;19.67;99254.05;1869597;76;22497;-62
2021/07/11 07:00:15;;;;;;;5.25;2.80;;;;;;;42.70;19.36;99256.83;1889035;76;22223;-62
2021/07/11 07:02:50;;;;;;;4.15;2.52;;;;;;;42.86;19.52;99260.77;1889688;76;22086;-64
2021/07/11 07:05:43;;;;;;;4.45;2.20;;;;;;;43.44;18.78;99262.92;1870614;76;22477;-64
2021/07/11 07:08:18;;;;;;;6.12;2.40;;;;;;;43.78;18.57;99265.88;1889941;76;22086;-63
2021/07/11 07:10:53;;;;;;;4.17;2.33;;;;;;;43.83;18.24;99265.31;1870656;76;22050;-62
2021/07/11 07:13:46;;;;;;;6.58;2.60;;;;;;;42.29;19.09;99253.90;1889924;76;22512;-62
2021/07/11 07:16:21;;;;;;;5.17;2.47;;;;;;;41.00;20.56;99254.21;1835103;77;22654;-63
2021/07/11 07:18:56;;;;;;;8.95;2.95;;;;;;;40.93;21.08;99254.56;1870653;76;22107;-61
2021/07/11 07:21:30;;;;;;;8.00;3.05;;;;;;;41.29;20.61;99259.59;1870793;76;22469;-63
2021/07/11 07:24:05;;;;;;;5.67;2.20;;;;;;;41.92;20.20;99257.84;1889979;76;22631;-63
2021/07/11 07:26:40;;;;;;;4.12;2.42;;;;;;;42.56;19.76;99264.41;1870689;76;22176;-65
2021/07/11 07:29:14;;;;;;;4.40;2.20;;;;;;;42.52;19.32;99265.30;1889965;76;22058;-63
2021/07/11 07:32:09;;;;;;;5.05;2.17;;;;;;;42.27;19.01;99264.08;1870460;76;22087;-64
2021/07/11 07:34:43;;;;;;;4.70;2.40;;;;;;;41.60;19.25;99260.54;1870689;76;22469;-62
2021/07/11 07:37:18;;;;;;;5.10;2.20;;;;;;;41.81;20.13;99266.70;1870679;76;22075;-62
2021/07/11 07:39:53;;;;;;;6.35;2.55;;;;;;;41.27;20.50;99265.68;1889975;76;22108;-62
2021/07/11 07:42:33;;;;;;;6.70;2.90;;;;;;;40.91;21.37;99256.58;1869829;76;22099;-61
2021/07/11 07:45:09;;;;;;;6.28;2.40;;;;;;;41.13;21.63;99257.26;1870657;76;22078;-64
2021/07/11 07:48:12;;;;;;;4.33;2.30;;;;;;;41.38;21.08;99258.55;1869810;76;22079;-62
2021/07/11 07:51:06;;;;;;;5.83;2.47;;;;;;;41.66;20.66;99254.08;1889982;76;20208;-65
2021/07/11 07:54:00;;;;;;;6.97;2.55;;;;;;;41.74;20.63;99263.52;1870626;76;22169;-62
2021/07/11 07:56:34;;;;;;;9.20;2.67;;;;;;;41.94;20.32;99263.45;1870723;76;22120;-64
2021/07/11 07:59:09;;;;;;;4.60;2.20;;;;;;;42.26;20.42;99262.89;1870710;76;22058;-63
2021/07/11 08:01:44;;;;;;;4.90;2.35;;;;;;;42.69;19.62;99264.63;1870686;76;22513;-63
2021/07/11 08:04:39;;;;;;;8.63;2.40;;;;;;;42.51;19.59;99262.23;1870704;76;22495;-62
2021/07/11 08:07:13;;;;;;;8.68;2.60;;;;;;;42.24;19.90;99260.89;1870666;76;22490;-62
2021/07/11 08:09:48;;;;;;;5.62;2.40;;;;;;;42.28;19.29;99259.49;1870673;76;22082;-64
2021/07/11 08:12:23;;;;;;;5.28;2.15;;;;;;;42.35;19.16;99258.27;1870617;76;22062;-62
2021/07/11 08:14:58;;;;;;;2.75;1.85;;;;;;;42.11;19.61;99254.71;1870672;76;22052;-64
2021/07/11 08:17:33;;;;;;;6.53;2.30;;;;;;;41.98;19.51;99256.66;1870652;76;22137;-63
2021/07/11 08:20:11;;;;;;;6.27;2.57;;;;;;;41.97;19.90;99254.95;1854962;76;27883;-61
2021/07/11 08:22:50;;;;;;;5.90;2.37;;;;;;;42.11;19.95;99253.35;1870040;76;22050;-62
2021/07/11 08:25:31;;;;;;;5.50;2.42;;;;;;;41.33;20.72;99251.45;1869812;76;22493;-64
2021/07/11 08:28:10;;;;;;;8.83;2.65;;;;;;;40.33;21.69;99248.98;1870554;76;22530;-63
2021/07/11 08:30:51;;;;;;;6.70;2.60;;;;;;;39.42;22.66;99247.80;1889918;76;22147;-63
2021/07/11 08:33:26;;;;;;;7.00;3.05;;;;;;;39.35;23.21;99243.20;1870650;76;20349;-62
2021/07/11 08:36:01;;;;;;;4.45;2.55;;;;;;;39.43;23.09;99237.32;1870703;76;22636;-61
2021/07/11 08:38:36;;;;;;;6.28;3.12;;;;;;;40.08;22.36;99235.38;1870719;76;22474;-65
2021/07/11 08:41:14;;;;;;;5.20;3.15;;;;;;;40.43;22.28;99229.38;1870706;76;22058;-63
2021/07/11 08:44:09;;;;;;;6.17;3.22;;;;;;;40.22;22.72;99227.14;1870656;76;22618;-62
2021/07/11 08:46:43;;;;;;;6.65;3.05;;;;;;;39.94;23.14;99230.09;1890001;76;22054;-65
2021/07/11 08:49:25;;;;;;;5.50;2.75;;;;;;;39.76;23.54;99231.20;1869742;76;22094;-64
2021/07/11 08:52:02;;;;;;;4.83;3.17;;;;;;;39.55;23.47;99226.25;1870426;76;22482;-64
2021/07/11 08:54:37;;;;;;;8.30;3.20;;;;;;;39.39;23.84;99218.92;1889960;76;22465;-64
2021/07/11 08:57:18;;;;;;;6.17;2.67;;;;;;;39.44;23.43;99216.08;1869775;76;22082;-64
2021/07/11 08:59:52;;;;;;;8.15;3.08;;;;;;;39.25;23.92;99213.58;1870666;76;22161;-65
2021/07/11 09:02:33;;;;;;;5.03;2.87;;;;;;;39.07;24.15;99217.20;1869804;76;22088;-63
2021/07/11 09:05:30;;;;;;;4.22;2.72;;;;;;;39.04;24.47;99213.47;1889969;76;22152;-64
2021/07/11 09:08:11;;;;;;;4.08;2.65;;;;;;;39.50;23.41;99224.03;1870585;76;22509;-63
2021/07/11 09:10:56;;;;;;;5.83;3.15;;;;;;;39.59;23.03;99223.54;1870722;76;22062;-64
2021/07/11 09:13:32;;;;;;;7.28;3.60;;;;;;;38.89;23.85;99217.77;1889937;76;22097;-64
2021/07/11 09:16:07;;;;;;;6.70;3.62;;;;;;;38.51;24.44;99215.77;1889971;76;22050;-61
2021/07/11 09:19:31;;;;;;;5.47;3.35;;;;;;;38.50;24.23;99212.73;1866474;75;22649;-62
2021/07/11 09:22:10;;;;;;;6.37;3.70;;;;;;;38.14;24.83;99214.08;1874146;76;28330;-62
2021/07/11 09:24:55;;;;;;;7.08;3.22;;;;;;;38.02;24.81;99213.95;1870629;76;22078;-61
2021/07/11 09:27:49;;;;;;;7.37;3.20;;;;;;;37.34;25.62;99215.11;1889976;76;22464;-64
2021/07/11 09:30:42;;;;;;;6.58;3.60;;;;;;;36.74;26.14;99202.48;1870687;76;22046;-61
2021/07/11 09:33:19;;;;;;;5.40;3.00;;;;;;;36.27;26.09;99198.30;1870717;76;22063;-63
2021/07/11 09:36:10;;;;;;;6.72;3.00;;;;;;;35.62;26.52;99197.42;1855109;76;27962;-62
2021/07/11 09:38:50;;;;;;;5.55;3.17;;;;;;;35.10;27.70;99188.58;1870692;76;22091;-62
2021/07/11 09:44:11;;;;;;;6.58;3.75;;;;;;;33.90;29.62;99176.36;1889927;76;20128;-62
2021/07/11 09:46:46;;;;;;;7.45;3.52;;;;;;;33.12;31.07;99175.94;1870594;76;22211;-60
2021/07/11 09:49:21;;;;;;;6.33;3.30;;;;;;;32.77;31.59;99167.48;1870733;76;22469;-61
2021/07/11 09:51:56;;;;;;;8.30;3.52;;;;;;;32.70;31.60;99175.15;1870582;76;22486;-63
2021/07/11 09:54:31;;;;;;;6.63;3.80;;;;;;;32.58;31.75;99167.58;1874015;76;28070;-64
2021/07/11 09:57:09;;;;;;;4.53;3.55;;;;;;;32.65;31.90;99176.83;1870591;76;22042;-61
2021/07/11 09:59:45;;;;;;;5.10;3.50;;;;;;;32.60;31.64;99168.32;1870665;76;22711;-63
2021/07/11 10:02:20;;;;;;;7.08;3.85;;;;;;;32.47;31.88;99175.55;1870635;76;22047;-63
2021/07/11 10:04:56;;;;;;;7.40;3.80;;;;;;;32.38;31.95;99172.23;1854712;76;27946;-65
2021/07/11 10:07:33;;;;;;;5.55;3.60;;;;;;;32.44;32.16;99172.63;1889961;76;22073;-62
2021/07/11 10:10:12;;;;;;;4.75;3.42;;;;;;;32.44;31.93;99159.77;1850855;77;22662;-62
2021/07/11 10:12:47;;;;;;;9.03;3.45;;;;;;;32.48;32.08;99153.23;1870711;76;22295;-62
2021/07/11 10:15:43;;;;;;;5.90;3.45;;;;;;;32.58;31.70;99161.39;1889905;76;22512;-61
2021/07/11 10:18:20;;;;;;;6.28;3.92;;;;;;;32.46;31.94;99161.80;1870700;76;22450;-63
2021/07/11 10:20:58;;;;;;;8.65;3.58;;;;;;;32.13;32.78;99159.88;1870482;76;22087;-64
2021/07/11 10:23:41;;;;;;;6.53;4.03;;;;;;;31.85;33.44;99151.22;1869827;76;22123;-64
2021/07/11 10:26:41;;;;;;;6.28;4.00;;;;;;;31.81;33.96;99152.92;1869819;76;22241;-64
2021/07/11 10:29:23;;;;;;;6.08;3.72;;;;;;;31.77;33.89;99153.61;1870700;76;22225;-65
2021/07/11 10:32:32;;;;;;;4.67;3.60;;;;;;;31.65;33.66;99159.84;1870708;76;22244;-64
2021/07/11 10:35:18;;;;;;;7.25;3.80;;;;;;;31.40;34.10;99158.97;1870688;76;22651;-62
2021/07/11 10:38:47;;;;;;;5.00;3.80;;;;;;;31.41;34.03;99153.15;1869755;76;22172;-62
2021/07/11 10:41:29;;;;;;;5.28;3.62;;;;;;;31.64;33.69;99153.66;1870699;76;22738;-62
2021/07/11 10:44:14;;;;;;;7.17;4.00;;;;;;;31.94;33.69;99150.58;1870677;76;22282;-65
2021/07/11 10:47:00;;;;;;;7.85;3.45;;;;;;;32.21;32.96;99153.01;1870498;76;22691;-63
2021/07/11 10:49:40;;;;;;;8.45;3.87;;;;;;;32.31;33.13;99149.62;1873871;76;27950;-64
2021/07/11 10:52:41;;;;;;;6.35;3.52;;;;;;;32.39;33.24;99156.09;1870712;76;22054;-63
2021/07/11 10:55:16;;;;;;;9.20;3.72;;;;;;;32.51;32.22;99146.30;1889973;76;22516;-64
2021/07/11 10:57:51;;;;;;;5.87;4.00;;;;;;;32.49;32.50;99144.26;1890066;76;22085;-62
2021/07/11 11:00:47;;;;;;;8.78;3.65;;;;;;;32.33;31.78;99145.02;1870622;76;22228;-63
2021/07/11 11:06:05;;;;;;;5.35;3.80;;;;;;;32.08;32.23;99151.36;1890029;76;22062;-63
2021/07/11 11:08:47;;;;;;;5.60;3.87;;;;;;;31.86;32.99;99149.42;1888261;76;22188;-63
2021/07/11 11:11:30;;;;;;;6.97;3.67;;;;;;;31.62;33.70;99150.73;1870550;76;22255;-64
2021/07/11 11:14:06;;;;;;;6.50;3.30;;;;;;;31.35;34.27;99151.27;1870656;76;22228;-63
2021/07/11 11:17:00;;;;;;;5.87;3.87;;;;;;;31.17;34.43;99141.05;1870694;76;22224;-63
2021/07/11 11:19:56;;;;;;;8.55;3.75;;;;;;;31.34;34.51;99145.54;1877967;75;22204;-61
2021/07/11 11:22:30;;;;;;;8.15;4.22;;;;;;;31.71;34.43;99138.06;1889978;76;22235;-63
2021/07/11 11:25:06;;;;;;;8.15;4.42;;;;;;;32.04;33.73;99130.73;1889963;76;22302;-63
2021/07/11 11:27:42;;;;;;;6.15;3.80;;;;;;;32.26;33.67;99130.42;1870698;76;22457;-65
2021/07/11 11:30:22;;;;;;;7.50;3.98;;;;;;;32.28;33.57;99129.83;1890092;76;22492;-65
2021/07/11 11:33:00;;;;;;;9.48;4.20;;;;;;;32.16;33.29;99129.80;1889994;76;22208;-62
2021/07/11 11:35:36;;;;;;;10.00;3.95;;;;;;;31.98;33.62;99131.16;1870638;76;22493;-65
2021/07/11 11:38:16;;;;;;;10.13;4.17;;;;;;;31.85;33.46;99131.69;1889937;76;22231;-65
2021/07/11 11:40:51;;;;;;;4.58;3.33;;;;;;;31.72;33.49;99136.59;1889975;76;22151;-62
2021/07/11 11:43:26;;;;;;;8.65;4.12;;;;;;;31.78;33.52;99132.65;1870599;76;22055;-64
2021/07/11 11:46:07;;;;;;;6.80;3.65;;;;;;;31.98;33.29;99129.83;1869810;76;22666;-61
2021/07/11 11:48:48;;;;;;;4.50;3.33;;;;;;;32.25;33.10;99129.58;1889991;76;20354;-64
2021/07/11 11:51:23;;;;;;;5.78;3.85;;;;;;;32.54;32.73;99124.72;1870674;76;22083;-62
2021/07/11 11:53:58;;;;;;;7.75;4.42;;;;;;;32.88;32.51;99124.74;1854624;76;28362;-62
2021/07/11 11:56:42;;;;;;;6.20;4.12;;;;;;;33.12;31.91;99126.47;1889970;76;22082;-61
2021/07/11 11:59:17;;;;;;;8.03;4.50;;;;;;;33.16;31.98;99130.12;1870662;76;22079;-65
2021/07/11 12:02:01;;;;;;;6.83;3.77;;;;;;;33.20;31.95;99132.05;1870701;76;22113;-62
2021/07/11 12:04:36;;;;;;;5.22;3.92;;;;;;;33.10;32.00;99124.39;1870710;76;22635;-64
2021/07/11 12:07:12;;;;;;;8.60;4.03;;;;;;;32.85;32.40;99118.31;1873898;76;27917;-62
2021/07/11 12:09:48;;;;;;;9.08;3.90;;;;;;;32.55;32.92;99126.90;1873908;76;27913;-61
2021/07/11 12:12:23;;;;;;;7.47;4.10;;;;;;;32.25;33.38;99119.38;1854718;76;27894;-63
2021/07/11 12:14:59;;;;;;;9.75;3.60;;;;;;;32.09;33.74;99119.22;1870684;76;22240;-63
2021/07/11 12:17:35;;;;;;;5.70;4.28;;;;;;;31.95;33.85;99120.73;1870472;76;22075;-61
2021/07/11 12:20:12;;;;;;;9.23;3.60;;;;;;;31.81;33.68;99114.22;1870703;76;22306;-64
2021/07/11 12:22:46;;;;;;;5.08;3.77;;;;;;;31.75;33.57;99105.70;1870644;76;22237;-62
2021/07/11 12:28:09;;;;;;;7.22;4.08;;;;;;;32.10;33.50;99112.05;1889873;76;22133;-63
2021/07/11 12:30:46;;;;;;;5.25;4.10;;;;;;;32.31;33.19;99097.53;1889971;76;22053;-62
2021/07/11 12:33:34;;;;;;;9.40;4.58;;;;;;;32.63;32.95;99099.93;1870614;76;22481;-62
2021/07/11 12:36:12;;;;;;;7.92;3.72;;;;;;;32.99;32.81;99100.66;1870571;76;22074;-64
2021/07/11 12:38:47;;;;;;;7.75;3.90;;;;;;;33.13;30.89;99101.41;1870610;76;22489;-62
2021/07/11 12:41:26;;;;;;;7.20;3.90;;;;;;;33.19;31.15;99095.09;1854849;76;38703;-64